sensor_id;sensor_type;location;lat;lon;timestamp;temperature;humidity
21271;DHT22;10795;50.796;3.860;2023-07-31T00:00:14;17.20;99.90
21271;DHT22;10795;50.796;3.860;2023-07-31T00:02:41;17.20;99.90
21271;DHT22;10795;50.796;3.860;2023-07-31T00:05:08;17.20;99.90
21271;DHT22;10795;50.796;3.860;2023-07-31T00:07:34;17.20;99.90
21271;DHT22;10795;50.796;3.860;2023-07-31T00:10:00;17.30;99.90
21271;DHT22;10795;50.796;3.860;2023-07-31T00:12:26;17.30;99.90
21271;DHT22;10795;50.796;3.860;2023-07-31T00:14:51;17.20;99.90
21271;DHT22;10795;50.796;3.860;2023-07-31T00:17:17;17.20;99.90
21271;DHT22;10795;50.796;3.860;2023-07-31T00:19:43;17.20;99.90
21271;DHT22;10795;50.796;3.860;2023-07-31T00:22:11;17.20;99.90
21271;DHT22;10795;50.796;3.860;2023-07-31T00:24:37;17.30;99.90
21271;DHT22;10795;50.796;3.860;2023-07-31T00:27:03;17.30;99.90
21271;DHT22;10795;50.796;3.860;2023-07-31T00:29:29;17.30;99.90
21271;DHT22;10795;50.796;3.860;2023-07-31T00:31:56;17.40;99.90
21271;DHT22;10795;50.796;3.860;2023-07-31T00:34:22;17.30;99.90
21271;DHT22;10795;50.796;3.860;2023-07-31T00:36:48;17.30;99.90
21271;DHT22;10795;50.796;3.860;2023-07-31T00:39:15;17.40;99.90
21271;DHT22;10795;50.796;3.860;2023-07-31T00:41:44;17.40;99.90
21271;DHT22;10795;50.796;3.860;2023-07-31T00:44:09;17.40;99.90
21271;DHT22;10795;50.796;3.860;2023-07-31T00:46:35;17.50;99.90
21271;DHT22;10795;50.796;3.860;2023-07-31T00:49:02;17.50;99.90
21271;DHT22;10795;50.796;3.860;2023-07-31T00:51:28;17.50;99.90
21271;DHT22;10795;50.796;3.860;2023-07-31T00:53:55;17.50;99.90
21271;DHT22;10795;50.796;3.860;2023-07-31T00:56:22;17.50;99.90
21271;DHT22;10795;50.796;3.860;2023-07-31T00:58:49;17.50;99.90
21271;DHT22;10795;50.796;3.860;2023-07-31T01:01:15;17.50;99.90
21271;DHT22;10795;50.796;3.860;2023-07-31T01:03:41;17.50;99.90
21271;DHT22;10795;50.796;3.860;2023-07-31T01:06:18;17.50;99.90
21271;DHT22;10795;50.796;3.860;2023-07-31T01:08:53;17.40;99.90
21271;DHT22;10795;50.796;3.860;2023-07-31T01:11:25;17.40;99.90
21271;DHT22;10795;50.796;3.860;2023-07-31T01:13:53;17.40;99.90
21271;DHT22;10795;50.796;3.860;2023-07-31T01:16:19;17.40;99.90
21271;DHT22;10795;50.796;3.860;2023-07-31T01:18:45;17.40;99.90
21271;DHT22;10795;50.796;3.860;2023-07-31T01:24:35;17.40;99.90
21271;DHT22;10795;50.796;3.860;2023-07-31T01:27:17;17.30;99.90
21271;DHT22;10795;50.796;3.860;2023-07-31T01:29:59;17.40;99.90
21271;DHT22;10795;50.796;3.860;2023-07-31T01:32:28;17.40;99.90
21271;DHT22;10795;50.796;3.860;2023-07-31T01:34:55;17.40;99.90
21271;DHT22;10795;50.796;3.860;2023-07-31T01:37:31;17.40;99.90
21271;DHT22;10795;50.796;3.860;2023-07-31T01:39:56;17.40;99.90
21271;DHT22;10795;50.796;3.860;2023-07-31T01:42:22;17.40;99.90
21271;DHT22;10795;50.796;3.860;2023-07-31T01:44:48;17.40;99.90
21271;DHT22;10795;50.796;3.860;2023-07-31T01:47:14;17.60;99.90
21271;DHT22;10795;50.796;3.860;2023-07-31T01:49:40;17.50;99.90
21271;DHT22;10795;50.796;3.860;2023-07-31T01:52:06;17.50;99.90
21271;DHT22;10795;50.796;3.860;2023-07-31T01:54:31;17.50;99.90
21271;DHT22;10795;50.796;3.860;2023-07-31T01:56:58;17.50;99.90
21271;DHT22;10795;50.796;3.860;2023-07-31T01:59:24;17.50;99.90
21271;DHT22;10795;50.796;3.860;2023-07-31T02:01:49;17.50;99.90
21271;DHT22;10795;50.796;3.860;2023-07-31T02:04:15;17.50;99.90
21271;DHT22;10795;50.796;3.860;2023-07-31T02:06:43;17.50;99.90
21271;DHT22;10795;50.796;3.860;2023-07-31T02:09:09;17.50;99.90
21271;DHT22;10795;50.796;3.860;2023-07-31T02:11:35;17.60;99.90
21271;DHT22;10795;50.796;3.860;2023-07-31T02:14:00;17.70;99.90
21271;DHT22;10795;50.796;3.860;2023-07-31T02:16:26;17.70;99.90
21271;DHT22;10795;50.796;3.860;2023-07-31T02:18:52;17.60;99.90
21271;DHT22;10795;50.796;3.860;2023-07-31T02:21:18;17.70;99.90
21271;DHT22;10795;50.796;3.860;2023-07-31T02:23:44;17.70;99.90
21271;DHT22;10795;50.796;3.860;2023-07-31T02:26:10;17.90;99.90
21271;DHT22;10795;50.796;3.860;2023-07-31T02:28:36;17.80;99.90
21271;DHT22;10795;50.796;3.860;2023-07-31T02:31:02;17.70;99.90
21271;DHT22;10795;50.796;3.860;2023-07-31T02:33:28;17.60;99.90
21271;DHT22;10795;50.796;3.860;2023-07-31T02:35:54;17.60;99.90
21271;DHT22;10795;50.796;3.860;2023-07-31T02:38:22;17.50;99.90
21271;DHT22;10795;50.796;3.860;2023-07-31T02:40:47;17.30;99.90
21271;DHT22;10795;50.796;3.860;2023-07-31T02:43:16;17.20;99.90
21271;DHT22;10795;50.796;3.860;2023-07-31T02:45:42;17.30;99.90
21271;DHT22;10795;50.796;3.860;2023-07-31T02:48:10;17.20;99.90
21271;DHT22;10795;50.796;3.860;2023-07-31T02:50:36;17.10;99.90
21271;DHT22;10795;50.796;3.860;2023-07-31T02:53:01;17.20;99.90
21271;DHT22;10795;50.796;3.860;2023-07-31T02:55:27;17.40;99.90
21271;DHT22;10795;50.796;3.860;2023-07-31T02:57:53;17.30;99.90
21271;DHT22;10795;50.796;3.860;2023-07-31T03:00:20;17.30;99.90
21271;DHT22;10795;50.796;3.860;2023-07-31T03:02:46;17.20;99.90
21271;DHT22;10795;50.796;3.860;2023-07-31T03:05:12;17.00;99.90
21271;DHT22;10795;50.796;3.860;2023-07-31T03:07:37;17.00;99.90
21271;DHT22;10795;50.796;3.860;2023-07-31T03:10:04;17.00;99.90
21271;DHT22;10795;50.796;3.860;2023-07-31T03:12:29;17.10;99.90
21271;DHT22;10795;50.796;3.860;2023-07-31T03:14:55;17.10;99.90
21271;DHT22;10795;50.796;3.860;2023-07-31T03:17:21;17.10;99.90
21271;DHT22;10795;50.796;3.860;2023-07-31T03:19:47;17.20;99.90
21271;DHT22;10795;50.796;3.860;2023-07-31T03:22:13;17.20;99.90
21271;DHT22;10795;50.796;3.860;2023-07-31T03:24:38;17.20;99.90
21271;DHT22;10795;50.796;3.860;2023-07-31T03:27:05;17.10;99.90
21271;DHT22;10795;50.796;3.860;2023-07-31T03:29:30;17.20;99.90
21271;DHT22;10795;50.796;3.860;2023-07-31T03:31:56;17.20;99.90
21271;DHT22;10795;50.796;3.860;2023-07-31T03:34:22;17.20;99.90
21271;DHT22;10795;50.796;3.860;2023-07-31T03:36:48;17.30;99.90
21271;DHT22;10795;50.796;3.860;2023-07-31T03:39:14;17.40;99.90
21271;DHT22;10795;50.796;3.860;2023-07-31T03:41:39;17.20;99.90
21271;DHT22;10795;50.796;3.860;2023-07-31T03:44:05;17.20;99.90
21271;DHT22;10795;50.796;3.860;2023-07-31T03:46:31;17.40;99.90
21271;DHT22;10795;50.796;3.860;2023-07-31T03:48:57;17.30;99.90
21271;DHT22;10795;50.796;3.860;2023-07-31T03:51:23;17.20;99.90
21271;DHT22;10795;50.796;3.860;2023-07-31T03:53:49;17.20;99.90
21271;DHT22;10795;50.796;3.860;2023-07-31T03:56:14;17.10;99.90
21271;DHT22;10795;50.796;3.860;2023-07-31T03:58:40;17.20;99.90
21271;DHT22;10795;50.796;3.860;2023-07-31T04:01:06;17.30;99.90
21271;DHT22;10795;50.796;3.860;2023-07-31T04:03:32;17.20;99.90
21271;DHT22;10795;50.796;3.860;2023-07-31T04:05:58;17.10;99.90
21271;DHT22;10795;50.796;3.860;2023-07-31T04:08:24;17.00;99.90
21271;DHT22;10795;50.796;3.860;2023-07-31T04:10:50;17.00;99.90
21271;DHT22;10795;50.796;3.860;2023-07-31T04:13:16;17.00;99.90
21271;DHT22;10795;50.796;3.860;2023-07-31T04:15:42;17.10;99.90
21271;DHT22;10795;50.796;3.860;2023-07-31T04:18:08;17.10;99.90
21271;DHT22;10795;50.796;3.860;2023-07-31T04:20:34;17.20;99.90
21271;DHT22;10795;50.796;3.860;2023-07-31T04:22:59;17.20;99.90
21271;DHT22;10795;50.796;3.860;2023-07-31T04:25:25;17.20;99.90
21271;DHT22;10795;50.796;3.860;2023-07-31T04:27:51;17.20;99.90
21271;DHT22;10795;50.796;3.860;2023-07-31T04:30:17;17.10;99.90
21271;DHT22;10795;50.796;3.860;2023-07-31T04:32:43;17.00;99.90
21271;DHT22;10795;50.796;3.860;2023-07-31T04:35:09;17.10;99.90
21271;DHT22;10795;50.796;3.860;2023-07-31T04:37:34;17.20;99.90
21271;DHT22;10795;50.796;3.860;2023-07-31T04:40:00;17.20;99.90
21271;DHT22;10795;50.796;3.860;2023-07-31T04:42:26;17.30;99.90
21271;DHT22;10795;50.796;3.860;2023-07-31T04:44:52;17.20;99.90
21271;DHT22;10795;50.796;3.860;2023-07-31T04:47:19;17.10;99.90
21271;DHT22;10795;50.796;3.860;2023-07-31T04:49:45;17.20;99.90
21271;DHT22;10795;50.796;3.860;2023-07-31T04:52:10;17.10;99.90
21271;DHT22;10795;50.796;3.860;2023-07-31T04:54:36;17.10;99.90
21271;DHT22;10795;50.796;3.860;2023-07-31T04:57:02;17.10;99.90
21271;DHT22;10795;50.796;3.860;2023-07-31T04:59:28;17.00;99.90
21271;DHT22;10795;50.796;3.860;2023-07-31T05:01:54;17.10;99.90
21271;DHT22;10795;50.796;3.860;2023-07-31T05:04:19;17.20;99.90
21271;DHT22;10795;50.796;3.860;2023-07-31T05:06:45;17.10;99.90
21271;DHT22;10795;50.796;3.860;2023-07-31T05:09:11;17.10;99.90
21271;DHT22;10795;50.796;3.860;2023-07-31T05:11:37;17.00;99.90
21271;DHT22;10795;50.796;3.860;2023-07-31T05:14:03;17.10;99.90
21271;DHT22;10795;50.796;3.860;2023-07-31T05:16:29;17.10;99.90
21271;DHT22;10795;50.796;3.860;2023-07-31T05:18:54;17.10;99.90
21271;DHT22;10795;50.796;3.860;2023-07-31T05:21:20;17.20;99.90
21271;DHT22;10795;50.796;3.860;2023-07-31T05:23:46;17.10;99.90
21271;DHT22;10795;50.796;3.860;2023-07-31T05:26:13;17.10;99.90
21271;DHT22;10795;50.796;3.860;2023-07-31T05:28:39;17.10;99.90
21271;DHT22;10795;50.796;3.860;2023-07-31T05:31:05;17.20;99.90
21271;DHT22;10795;50.796;3.860;2023-07-31T05:33:32;17.10;99.90
21271;DHT22;10795;50.796;3.860;2023-07-31T05:35:58;17.00;99.90
21271;DHT22;10795;50.796;3.860;2023-07-31T05:38:24;17.10;99.90
21271;DHT22;10795;50.796;3.860;2023-07-31T05:40:50;17.10;99.90
21271;DHT22;10795;50.796;3.860;2023-07-31T05:43:16;17.00;99.90
21271;DHT22;10795;50.796;3.860;2023-07-31T05:45:44;17.00;99.90
21271;DHT22;10795;50.796;3.860;2023-07-31T05:48:10;17.20;99.90
21271;DHT22;10795;50.796;3.860;2023-07-31T05:50:36;17.20;99.90
21271;DHT22;10795;50.796;3.860;2023-07-31T05:53:04;17.30;99.90
21271;DHT22;10795;50.796;3.860;2023-07-31T05:55:30;17.20;99.90
21271;DHT22;10795;50.796;3.860;2023-07-31T05:57:56;17.20;99.90
21271;DHT22;10795;50.796;3.860;2023-07-31T06:00:22;17.00;99.90
21271;DHT22;10795;50.796;3.860;2023-07-31T06:02:48;16.90;99.90
21271;DHT22;10795;50.796;3.860;2023-07-31T06:05:14;16.90;99.90
21271;DHT22;10795;50.796;3.860;2023-07-31T06:07:40;17.20;99.90
21271;DHT22;10795;50.796;3.860;2023-07-31T06:10:06;17.20;99.90
21271;DHT22;10795;50.796;3.860;2023-07-31T06:12:33;17.20;99.90
21271;DHT22;10795;50.796;3.860;2023-07-31T06:14:59;17.10;99.90
21271;DHT22;10795;50.796;3.860;2023-07-31T06:17:24;17.10;99.90
21271;DHT22;10795;50.796;3.860;2023-07-31T06:19:52;17.10;99.90
21271;DHT22;10795;50.796;3.860;2023-07-31T06:22:18;17.10;99.90
21271;DHT22;10795;50.796;3.860;2023-07-31T06:24:44;17.30;99.90
21271;DHT22;10795;50.796;3.860;2023-07-31T06:27:10;17.40;99.90
21271;DHT22;10795;50.796;3.860;2023-07-31T06:29:36;17.40;99.90
21271;DHT22;10795;50.796;3.860;2023-07-31T06:32:02;17.50;99.90
21271;DHT22;10795;50.796;3.860;2023-07-31T06:34:28;17.60;99.90
21271;DHT22;10795;50.796;3.860;2023-07-31T06:36:58;17.50;99.90
21271;DHT22;10795;50.796;3.860;2023-07-31T06:39:24;17.40;99.90
21271;DHT22;10795;50.796;3.860;2023-07-31T06:41:49;17.50;99.90
21271;DHT22;10795;50.796;3.860;2023-07-31T06:44:16;17.50;99.90
21271;DHT22;10795;50.796;3.860;2023-07-31T06:46:42;17.50;99.90
21271;DHT22;10795;50.796;3.860;2023-07-31T06:49:08;17.70;99.90
21271;DHT22;10795;50.796;3.860;2023-07-31T06:51:34;17.70;99.90
21271;DHT22;10795;50.796;3.860;2023-07-31T06:54:01;17.50;99.90
21271;DHT22;10795;50.796;3.860;2023-07-31T06:56:27;17.50;99.90
21271;DHT22;10795;50.796;3.860;2023-07-31T06:58:53;17.60;99.90
21271;DHT22;10795;50.796;3.860;2023-07-31T07:01:18;17.70;99.90
21271;DHT22;10795;50.796;3.860;2023-07-31T07:03:44;17.80;99.90
21271;DHT22;10795;50.796;3.860;2023-07-31T07:06:10;17.70;99.90
21271;DHT22;10795;50.796;3.860;2023-07-31T07:08:36;17.70;99.90
21271;DHT22;10795;50.796;3.860;2023-07-31T07:11:02;17.70;99.90
21271;DHT22;10795;50.796;3.860;2023-07-31T07:13:27;17.60;99.90
21271;DHT22;10795;50.796;3.860;2023-07-31T07:15:53;17.70;99.90
21271;DHT22;10795;50.796;3.860;2023-07-31T07:18:19;17.70;99.90
21271;DHT22;10795;50.796;3.860;2023-07-31T07:20:48;17.90;99.90
21271;DHT22;10795;50.796;3.860;2023-07-31T07:23:14;17.80;99.90
21271;DHT22;10795;50.796;3.860;2023-07-31T07:25:40;17.80;99.90
21271;DHT22;10795;50.796;3.860;2023-07-31T07:28:06;17.80;99.90
21271;DHT22;10795;50.796;3.860;2023-07-31T07:30:32;17.80;99.90
21271;DHT22;10795;50.796;3.860;2023-07-31T07:32:57;17.80;99.90
21271;DHT22;10795;50.796;3.860;2023-07-31T07:35:23;17.80;99.90
21271;DHT22;10795;50.796;3.860;2023-07-31T07:37:49;17.80;99.90
21271;DHT22;10795;50.796;3.860;2023-07-31T07:40:19;18.00;99.90
21271;DHT22;10795;50.796;3.860;2023-07-31T07:42:45;18.10;99.90
21271;DHT22;10795;50.796;3.860;2023-07-31T07:45:12;18.20;99.90
21271;DHT22;10795;50.796;3.860;2023-07-31T07:47:40;18.20;99.90
21271;DHT22;10795;50.796;3.860;2023-07-31T07:50:07;18.20;99.90
21271;DHT22;10795;50.796;3.860;2023-07-31T07:52:33;18.20;99.90
21271;DHT22;10795;50.796;3.860;2023-07-31T07:54:58;18.20;99.90
21271;DHT22;10795;50.796;3.860;2023-07-31T07:57:26;18.00;99.90
21271;DHT22;10795;50.796;3.860;2023-07-31T07:59:51;18.10;99.90
21271;DHT22;10795;50.796;3.860;2023-07-31T08:02:17;17.90;99.90
21271;DHT22;10795;50.796;3.860;2023-07-31T08:04:43;17.90;99.90
21271;DHT22;10795;50.796;3.860;2023-07-31T08:07:11;17.90;99.90
21271;DHT22;10795;50.796;3.860;2023-07-31T08:09:37;18.00;99.90
21271;DHT22;10795;50.796;3.860;2023-07-31T08:12:04;18.00;99.90
21271;DHT22;10795;50.796;3.860;2023-07-31T08:14:30;18.00;99.90
21271;DHT22;10795;50.796;3.860;2023-07-31T08:16:56;18.10;99.90
21271;DHT22;10795;50.796;3.860;2023-07-31T08:19:22;18.10;99.90
21271;DHT22;10795;50.796;3.860;2023-07-31T08:21:48;18.20;99.90
21271;DHT22;10795;50.796;3.860;2023-07-31T08:24:13;18.10;99.90
21271;DHT22;10795;50.796;3.860;2023-07-31T08:26:39;18.10;99.90
21271;DHT22;10795;50.796;3.860;2023-07-31T08:29:05;18.20;99.90
21271;DHT22;10795;50.796;3.860;2023-07-31T08:31:31;18.20;99.90
21271;DHT22;10795;50.796;3.860;2023-07-31T08:33:57;18.30;99.90
21271;DHT22;10795;50.796;3.860;2023-07-31T08:36:23;18.20;99.90
21271;DHT22;10795;50.796;3.860;2023-07-31T08:38:48;18.40;99.90
21271;DHT22;10795;50.796;3.860;2023-07-31T08:41:16;18.50;99.90
21271;DHT22;10795;50.796;3.860;2023-07-31T08:43:49;18.50;99.90
21271;DHT22;10795;50.796;3.860;2023-07-31T08:46:15;18.50;99.90
21271;DHT22;10795;50.796;3.860;2023-07-31T08:48:44;18.40;99.90
21271;DHT22;10795;50.796;3.860;2023-07-31T08:51:11;18.40;99.90
21271;DHT22;10795;50.796;3.860;2023-07-31T08:53:37;18.40;99.90
21271;DHT22;10795;50.796;3.860;2023-07-31T08:56:03;18.30;99.90
21271;DHT22;10795;50.796;3.860;2023-07-31T08:58:31;18.20;99.90
21271;DHT22;10795;50.796;3.860;2023-07-31T09:01:00;18.30;99.90
21271;DHT22;10795;50.796;3.860;2023-07-31T09:03:26;18.40;99.90
21271;DHT22;10795;50.796;3.860;2023-07-31T09:05:53;18.50;99.90
21271;DHT22;10795;50.796;3.860;2023-07-31T09:08:21;18.40;99.90
21271;DHT22;10795;50.796;3.860;2023-07-31T09:10:48;18.20;99.90
21271;DHT22;10795;50.796;3.860;2023-07-31T09:13:16;17.90;99.90
21271;DHT22;10795;50.796;3.860;2023-07-31T09:15:46;17.90;99.90
21271;DHT22;10795;50.796;3.860;2023-07-31T09:18:12;18.00;99.90
21271;DHT22;10795;50.796;3.860;2023-07-31T09:20:39;18.00;99.90
21271;DHT22;10795;50.796;3.860;2023-07-31T09:23:13;18.20;99.90
21271;DHT22;10795;50.796;3.860;2023-07-31T09:25:40;18.20;99.90
21271;DHT22;10795;50.796;3.860;2023-07-31T09:28:10;18.20;99.90
21271;DHT22;10795;50.796;3.860;2023-07-31T09:30:48;18.20;99.90
21271;DHT22;10795;50.796;3.860;2023-07-31T09:33:14;18.20;99.90
21271;DHT22;10795;50.796;3.860;2023-07-31T09:35:40;18.20;99.90
21271;DHT22;10795;50.796;3.860;2023-07-31T09:38:11;18.20;99.90
21271;DHT22;10795;50.796;3.860;2023-07-31T09:40:38;18.20;99.90
21271;DHT22;10795;50.796;3.860;2023-07-31T09:43:06;18.30;99.90
21271;DHT22;10795;50.796;3.860;2023-07-31T09:45:55;18.40;99.90
21271;DHT22;10795;50.796;3.860;2023-07-31T09:48:23;18.50;99.90
21271;DHT22;10795;50.796;3.860;2023-07-31T09:50:52;18.50;99.90
21271;DHT22;10795;50.796;3.860;2023-07-31T09:53:18;18.60;99.90
21271;DHT22;10795;50.796;3.860;2023-07-31T09:55:44;18.50;99.90
21271;DHT22;10795;50.796;3.860;2023-07-31T09:58:12;18.50;99.90
21271;DHT22;10795;50.796;3.860;2023-07-31T10:00:38;18.60;99.90
21271;DHT22;10795;50.796;3.860;2023-07-31T10:03:10;18.50;99.90
21271;DHT22;10795;50.796;3.860;2023-07-31T10:05:45;18.30;99.90
21271;DHT22;10795;50.796;3.860;2023-07-31T10:08:14;18.40;99.90
21271;DHT22;10795;50.796;3.860;2023-07-31T10:10:44;18.60;99.90
21271;DHT22;10795;50.796;3.860;2023-07-31T10:13:12;18.80;99.90
21271;DHT22;10795;50.796;3.860;2023-07-31T10:15:38;19.10;99.90
21271;DHT22;10795;50.796;3.860;2023-07-31T10:18:06;19.20;99.90
21271;DHT22;10795;50.796;3.860;2023-07-31T10:20:32;19.00;99.90
21271;DHT22;10795;50.796;3.860;2023-07-31T10:22:59;18.90;99.90
21271;DHT22;10795;50.796;3.860;2023-07-31T10:25:29;19.00;99.90
21271;DHT22;10795;50.796;3.860;2023-07-31T10:27:57;19.00;99.90
21271;DHT22;10795;50.796;3.860;2023-07-31T10:30:27;19.00;99.90
21271;DHT22;10795;50.796;3.860;2023-07-31T10:32:55;19.10;99.90
21271;DHT22;10795;50.796;3.860;2023-07-31T10:35:21;19.20;99.90
21271;DHT22;10795;50.796;3.860;2023-07-31T10:37:50;19.10;99.90
21271;DHT22;10795;50.796;3.860;2023-07-31T10:40:19;19.20;99.90
21271;DHT22;10795;50.796;3.860;2023-07-31T10:42:55;19.40;99.90
21271;DHT22;10795;50.796;3.860;2023-07-31T10:45:33;19.50;99.90
21271;DHT22;10795;50.796;3.860;2023-07-31T10:48:06;19.40;99.90
21271;DHT22;10795;50.796;3.860;2023-07-31T10:50:37;19.40;99.90
21271;DHT22;10795;50.796;3.860;2023-07-31T10:53:04;19.30;99.90
21271;DHT22;10795;50.796;3.860;2023-07-31T10:55:32;19.40;99.90
21271;DHT22;10795;50.796;3.860;2023-07-31T10:58:12;19.30;99.90
21271;DHT22;10795;50.796;3.860;2023-07-31T11:00:40;19.20;99.90
21271;DHT22;10795;50.796;3.860;2023-07-31T11:03:08;19.10;99.90
21271;DHT22;10795;50.796;3.860;2023-07-31T11:10:50;19.10;99.90
21271;DHT22;10795;50.796;3.860;2023-07-31T11:13:19;19.10;99.90
21271;DHT22;10795;50.796;3.860;2023-07-31T11:15:45;19.00;99.90
21271;DHT22;10795;50.796;3.860;2023-07-31T11:18:10;19.00;99.90
21271;DHT22;10795;50.796;3.860;2023-07-31T11:20:37;19.00;99.90
21271;DHT22;10795;50.796;3.860;2023-07-31T11:23:07;19.00;99.90
21271;DHT22;10795;50.796;3.860;2023-07-31T11:25:33;18.90;99.90
21271;DHT22;10795;50.796;3.860;2023-07-31T11:28:06;19.10;99.90
21271;DHT22;10795;50.796;3.860;2023-07-31T11:30:33;19.20;99.90
21271;DHT22;10795;50.796;3.860;2023-07-31T11:33:04;19.40;99.90
21271;DHT22;10795;50.796;3.860;2023-07-31T11:35:35;19.30;99.90
21271;DHT22;10795;50.796;3.860;2023-07-31T11:38:02;19.20;99.90
21271;DHT22;10795;50.796;3.860;2023-07-31T11:40:28;19.30;99.90
21271;DHT22;10795;50.796;3.860;2023-07-31T11:42:58;19.40;99.90
21271;DHT22;10795;50.796;3.860;2023-07-31T11:45:27;19.40;99.90
21271;DHT22;10795;50.796;3.860;2023-07-31T11:47:56;19.60;99.90
21271;DHT22;10795;50.796;3.860;2023-07-31T11:50:23;19.50;99.90
21271;DHT22;10795;50.796;3.860;2023-07-31T11:52:58;19.70;99.90
21271;DHT22;10795;50.796;3.860;2023-07-31T11:55:25;19.50;99.90
21271;DHT22;10795;50.796;3.860;2023-07-31T11:57:52;19.50;99.90
21271;DHT22;10795;50.796;3.860;2023-07-31T12:00:19;19.50;99.90
21271;DHT22;10795;50.796;3.860;2023-07-31T12:02:46;19.60;99.90
21271;DHT22;10795;50.796;3.860;2023-07-31T12:05:13;19.70;99.90
21271;DHT22;10795;50.796;3.860;2023-07-31T12:07:52;19.70;99.90
21271;DHT22;10795;50.796;3.860;2023-07-31T12:10:30;19.80;99.90
21271;DHT22;10795;50.796;3.860;2023-07-31T12:13:05;19.60;99.90
21271;DHT22;10795;50.796;3.860;2023-07-31T12:18:15;19.50;99.90
21271;DHT22;10795;50.796;3.860;2023-07-31T12:20:43;19.40;99.90
21271;DHT22;10795;50.796;3.860;2023-07-31T12:25:44;19.60;99.90
21271;DHT22;10795;50.796;3.860;2023-07-31T12:28:10;19.60;99.90
21271;DHT22;10795;50.796;3.860;2023-07-31T12:30:40;19.50;99.90
21271;DHT22;10795;50.796;3.860;2023-07-31T12:33:13;19.40;99.90
21271;DHT22;10795;50.796;3.860;2023-07-31T12:35:47;19.30;99.90
21271;DHT22;10795;50.796;3.860;2023-07-31T12:38:13;19.10;99.90
21271;DHT22;10795;50.796;3.860;2023-07-31T12:40:40;19.10;99.90
21271;DHT22;10795;50.796;3.860;2023-07-31T12:43:07;19.00;99.90
21271;DHT22;10795;50.796;3.860;2023-07-31T12:45:34;18.90;99.90
21271;DHT22;10795;50.796;3.860;2023-07-31T12:48:00;19.00;99.90
21271;DHT22;10795;50.796;3.860;2023-07-31T12:50:26;18.90;99.90
21271;DHT22;10795;50.796;3.860;2023-07-31T12:52:56;18.70;99.90
21271;DHT22;10795;50.796;3.860;2023-07-31T12:55:22;18.70;99.90
21271;DHT22;10795;50.796;3.860;2023-07-31T12:57:49;18.70;99.90
21271;DHT22;10795;50.796;3.860;2023-07-31T13:00:16;18.70;99.90
21271;DHT22;10795;50.796;3.860;2023-07-31T13:02:42;18.80;99.90
21271;DHT22;10795;50.796;3.860;2023-07-31T13:05:08;18.70;99.90
21271;DHT22;10795;50.796;3.860;2023-07-31T13:07:34;18.80;99.90
21271;DHT22;10795;50.796;3.860;2023-07-31T13:10:00;18.60;99.90
21271;DHT22;10795;50.796;3.860;2023-07-31T13:12:26;18.60;99.90
21271;DHT22;10795;50.796;3.860;2023-07-31T13:14:51;18.60;99.90
21271;DHT22;10795;50.796;3.860;2023-07-31T13:17:18;18.60;99.90
21271;DHT22;10795;50.796;3.860;2023-07-31T13:19:44;18.40;99.90
21271;DHT22;10795;50.796;3.860;2023-07-31T13:22:10;18.80;99.90
21271;DHT22;10795;50.796;3.860;2023-07-31T13:24:36;18.50;99.90
21271;DHT22;10795;50.796;3.860;2023-07-31T13:27:02;18.50;99.90
21271;DHT22;10795;50.796;3.860;2023-07-31T13:29:28;18.50;99.90
21271;DHT22;10795;50.796;3.860;2023-07-31T13:31:55;18.50;99.90
21271;DHT22;10795;50.796;3.860;2023-07-31T13:34:21;18.40;99.90
21271;DHT22;10795;50.796;3.860;2023-07-31T13:36:47;18.50;99.90
21271;DHT22;10795;50.796;3.860;2023-07-31T13:39:13;18.50;99.90
21271;DHT22;10795;50.796;3.860;2023-07-31T13:41:39;18.70;99.90
21271;DHT22;10795;50.796;3.860;2023-07-31T13:44:04;18.60;99.90
21271;DHT22;10795;50.796;3.860;2023-07-31T13:46:30;18.70;99.90
21271;DHT22;10795;50.796;3.860;2023-07-31T13:48:59;18.70;99.90
21271;DHT22;10795;50.796;3.860;2023-07-31T13:51:25;18.70;99.90
21271;DHT22;10795;50.796;3.860;2023-07-31T13:53:53;18.70;99.90
21271;DHT22;10795;50.796;3.860;2023-07-31T13:56:18;18.70;99.90
21271;DHT22;10795;50.796;3.860;2023-07-31T13:58:44;18.70;99.90
21271;DHT22;10795;50.796;3.860;2023-07-31T14:01:10;18.60;99.90
21271;DHT22;10795;50.796;3.860;2023-07-31T14:03:36;18.60;99.90
21271;DHT22;10795;50.796;3.860;2023-07-31T14:06:02;18.50;99.90
21271;DHT22;10795;50.796;3.860;2023-07-31T14:08:28;18.60;99.90
21271;DHT22;10795;50.796;3.860;2023-07-31T14:10:55;18.60;99.90
21271;DHT22;10795;50.796;3.860;2023-07-31T14:13:21;18.60;99.90
21271;DHT22;10795;50.796;3.860;2023-07-31T14:15:47;18.60;99.90
21271;DHT22;10795;50.796;3.860;2023-07-31T14:18:13;18.70;99.90
21271;DHT22;10795;50.796;3.860;2023-07-31T14:20:39;18.80;99.90
21271;DHT22;10795;50.796;3.860;2023-07-31T14:23:07;18.70;99.90
21271;DHT22;10795;50.796;3.860;2023-07-31T14:25:33;18.90;99.90
21271;DHT22;10795;50.796;3.860;2023-07-31T14:27:58;18.70;99.90
21271;DHT22;10795;50.796;3.860;2023-07-31T14:30:25;18.60;99.90
21271;DHT22;10795;50.796;3.860;2023-07-31T14:32:50;18.70;99.90
21271;DHT22;10795;50.796;3.860;2023-07-31T14:35:16;18.70;99.90
21271;DHT22;10795;50.796;3.860;2023-07-31T14:37:44;18.50;99.90
21271;DHT22;10795;50.796;3.860;2023-07-31T14:40:12;18.50;99.90
21271;DHT22;10795;50.796;3.860;2023-07-31T14:42:38;18.40;99.90
21271;DHT22;10795;50.796;3.860;2023-07-31T14:45:05;18.40;99.90
21271;DHT22;10795;50.796;3.860;2023-07-31T14:47:32;18.40;99.90
21271;DHT22;10795;50.796;3.860;2023-07-31T14:49:58;18.30;99.90
21271;DHT22;10795;50.796;3.860;2023-07-31T14:52:24;18.50;99.90
21271;DHT22;10795;50.796;3.860;2023-07-31T14:54:53;18.40;99.90
21271;DHT22;10795;50.796;3.860;2023-07-31T14:57:19;18.40;99.90
21271;DHT22;10795;50.796;3.860;2023-07-31T14:59:46;18.30;99.90
21271;DHT22;10795;50.796;3.860;2023-07-31T15:02:12;18.30;99.90
21271;DHT22;10795;50.796;3.860;2023-07-31T15:04:38;18.40;99.90
21271;DHT22;10795;50.796;3.860;2023-07-31T15:07:04;18.60;99.90
21271;DHT22;10795;50.796;3.860;2023-07-31T15:09:30;18.50;99.90
21271;DHT22;10795;50.796;3.860;2023-07-31T15:11:57;18.40;99.90
21271;DHT22;10795;50.796;3.860;2023-07-31T15:14:23;18.40;99.90
21271;DHT22;10795;50.796;3.860;2023-07-31T15:16:49;18.40;99.90
21271;DHT22;10795;50.796;3.860;2023-07-31T15:19:16;18.40;99.90
21271;DHT22;10795;50.796;3.860;2023-07-31T15:21:42;18.50;99.90
21271;DHT22;10795;50.796;3.860;2023-07-31T15:24:08;18.40;99.90
21271;DHT22;10795;50.796;3.860;2023-07-31T15:26:34;18.40;99.90
21271;DHT22;10795;50.796;3.860;2023-07-31T15:29:06;18.40;99.90
21271;DHT22;10795;50.796;3.860;2023-07-31T15:31:39;18.30;99.90
21271;DHT22;10795;50.796;3.860;2023-07-31T15:34:06;18.30;99.90
21271;DHT22;10795;50.796;3.860;2023-07-31T15:36:32;18.40;99.90
21271;DHT22;10795;50.796;3.860;2023-07-31T15:38:58;18.50;99.90
21271;DHT22;10795;50.796;3.860;2023-07-31T15:41:24;18.50;99.90